sensor_id;sensor_type;location;lat;lon;timestamp;pressure;altitude;pressure_sealevel;temperature;humidity
50250;BME280;36133;42.522;27.456;2023-04-27T00:00:48;100624.50;;;14.53;68.83
50250;BME280;36133;42.522;27.456;2023-04-27T00:03:16;100669.09;;;15.22;67.45
50250;BME280;36133;42.522;27.456;2023-04-27T00:05:41;100632.78;;;14.78;68.12
50250;BME280;36133;42.522;27.456;2023-04-27T00:08:08;100635.91;;;14.75;67.50
50250;BME280;36133;42.522;27.456;2023-04-27T00:10:34;100678.22;;;15.03;68.70
50250;BME280;36133;42.522;27.456;2023-04-27T00:13:00;100680.13;;;15.34;67.32
50250;BME280;36133;42.522;27.456;2023-04-27T00:15:26;100482.06;;;13.98;67.12
50250;BME280;36133;42.522;27.456;2023-04-27T00:17:51;100455.72;;;13.40;67.47
50250;BME280;36133;42.522;27.456;2023-04-27T00:20:17;100685.13;;;15.37;65.41
50250;BME280;36133;42.522;27.456;2023-04-27T00:22:43;100698.09;;;14.45;67.33
50250;BME280;36133;42.522;27.456;2023-04-27T00:25:08;100651.94;;;14.25;67.16
50250;BME280;36133;42.522;27.456;2023-04-27T00:27:34;100640.56;;;13.70;67.96
50250;BME280;36133;42.522;27.456;2023-04-27T00:29:59;100697.69;;;14.28;66.83
50250;BME280;36133;42.522;27.456;2023-04-27T00:32:25;100559.19;;;13.37;65.71
50250;BME280;36133;42.522;27.456;2023-04-27T00:34:51;100675.56;;;14.12;65.63
50250;BME280;36133;42.522;27.456;2023-04-27T00:37:16;100702.88;;;14.36;65.81
50250;BME280;36133;42.522;27.456;2023-04-27T00:39:42;100533.09;;;13.43;64.96
50250;BME280;36133;42.522;27.456;2023-04-27T00:42:08;100405.31;;;12.67;64.51
50250;BME280;36133;42.522;27.456;2023-04-27T00:44:38;100719.84;;;14.32;64.41
50250;BME280;36133;42.522;27.456;2023-04-27T00:47:04;100709.81;;;14.46;63.87
50250;BME280;36133;42.522;27.456;2023-04-27T00:49:30;100546.19;;;13.86;62.95
50250;BME280;36133;42.522;27.456;2023-04-27T00:51:56;100478.69;;;12.98;64.85
50250;BME280;36133;42.522;27.456;2023-04-27T00:54:22;100729.03;;;13.58;67.18
50250;BME280;36133;42.522;27.456;2023-04-27T00:56:49;100636.78;;;13.32;66.35
50250;BME280;36133;42.522;27.456;2023-04-27T00:59:15;100556.44;;;12.84;65.31
50250;BME280;36133;42.522;27.456;2023-04-27T01:01:41;100510.91;;;12.40;65.92
50250;BME280;36133;42.522;27.456;2023-04-27T01:04:06;100571.19;;;12.82;65.51
50250;BME280;36133;42.522;27.456;2023-04-27T01:06:32;100444.69;;;12.36;63.95
50250;BME280;36133;42.522;27.456;2023-04-27T01:08:58;100569.94;;;12.78;63.79
50250;BME280;36133;42.522;27.456;2023-04-27T01:11:23;100254.66;;;10.92;63.14
50250;BME280;36133;42.522;27.456;2023-04-27T01:13:49;100593.72;;;12.96;62.48
50250;BME280;36133;42.522;27.456;2023-04-27T01:16:16;100385.34;;;11.26;62.70
50250;BME280;36133;42.522;27.456;2023-04-27T01:18:42;100439.13;;;11.90;62.88
50250;BME280;36133;42.522;27.456;2023-04-27T01:21:08;100393.88;;;11.70;61.18
50250;BME280;36133;42.522;27.456;2023-04-27T01:23:34;100332.25;;;11.53;60.80
50250;BME280;36133;42.522;27.456;2023-04-27T01:26:00;100433.03;;;12.88;59.29
50250;BME280;36133;42.522;27.456;2023-04-27T01:28:26;100742.09;;;14.74;59.72
50250;BME280;36133;42.522;27.456;2023-04-27T01:30:51;100750.09;;;14.62;59.80
50250;BME280;36133;42.522;27.456;2023-04-27T01:33:17;100763.88;;;14.41;60.09
50250;BME280;36133;42.522;27.456;2023-04-27T01:35:42;100771.84;;;14.16;60.82
50250;BME280;36133;42.522;27.456;2023-04-27T01:38:08;100540.19;;;12.17;60.81
50250;BME280;36133;42.522;27.456;2023-04-27T01:40:33;100582.50;;;12.24;60.73
50250;BME280;36133;42.522;27.456;2023-04-27T01:42:59;100791.25;;;13.93;61.48
50250;BME280;36133;42.522;27.456;2023-04-27T01:45:25;100574.38;;;12.31;61.16
50250;BME280;36133;42.522;27.456;2023-04-27T01:47:51;100583.91;;;12.14;61.03
50250;BME280;36133;42.522;27.456;2023-04-27T01:50:17;100550.84;;;11.84;61.64
50250;BME280;36133;42.522;27.456;2023-04-27T01:52:42;100534.19;;;11.24;62.02
50250;BME280;36133;42.522;27.456;2023-04-27T01:55:08;100560.31;;;11.17;62.39
50250;BME280;36133;42.522;27.456;2023-04-27T01:57:34;100568.19;;;10.91;63.90
50250;BME280;36133;42.522;27.456;2023-04-27T01:59:59;100787.47;;;12.37;64.48
50250;BME280;36133;42.522;27.456;2023-04-27T02:02:25;100790.94;;;12.24;63.73
50250;BME280;36133;42.522;27.456;2023-04-27T02:04:50;100576.69;;;10.51;64.22
50250;BME280;36133;42.522;27.456;2023-04-27T02:07:16;100792.34;;;11.56;64.49
50250;BME280;36133;42.522;27.456;2023-04-27T02:09:44;100800.34;;;11.64;64.67
50250;BME280;36133;42.522;27.456;2023-04-27T02:12:10;100708.19;;;11.44;63.93
50250;BME280;36133;42.522;27.456;2023-04-27T02:14:35;100788.25;;;11.82;63.57
50250;BME280;36133;42.522;27.456;2023-04-27T02:17:01;100656.28;;;10.41;63.75
50250;BME280;36133;42.522;27.456;2023-04-27T02:19:27;100820.13;;;11.86;62.90
50250;BME280;36133;42.522;27.456;2023-04-27T02:21:52;100693.09;;;11.14;62.25
50250;BME280;36133;42.522;27.456;2023-04-27T02:24:18;100802.19;;;11.42;63.06
50250;BME280;36133;42.522;27.456;2023-04-27T02:26:43;100785.47;;;11.75;62.14
50250;BME280;36133;42.522;27.456;2023-04-27T02:29:09;100801.63;;;11.68;62.54
50250;BME280;36133;42.522;27.456;2023-04-27T02:31:34;100638.38;;;10.69;61.75
50250;BME280;36133;42.522;27.456;2023-04-27T02:34:03;100643.28;;;10.44;61.99
50250;BME280;36133;42.522;27.456;2023-04-27T02:36:28;100732.53;;;11.66;59.83
50250;BME280;36133;42.522;27.456;2023-04-27T02:38:55;100705.81;;;11.56;59.69
50250;BME280;36133;42.522;27.456;2023-04-27T02:41:21;100542.19;;;10.17;61.01
50250;BME280;36133;42.522;27.456;2023-04-27T02:43:47;100314.44;;;8.38;60.60
50250;BME280;36133;42.522;27.456;2023-04-27T02:46:14;100535.25;;;10.08;59.76
50250;BME280;36133;42.522;27.456;2023-04-27T02:48:40;100873.22;;;12.09;59.89
50250;BME280;36133;42.522;27.456;2023-04-27T02:51:06;100768.59;;;11.01;60.73
50250;BME280;36133;42.522;27.456;2023-04-27T02:53:31;100828.25;;;12.08;58.85
50250;BME280;36133;42.522;27.456;2023-04-27T02:55:56;100667.84;;;11.22;58.47
50250;BME280;36133;42.522;27.456;2023-04-27T02:58:23;100742.75;;;11.49;58.91
50250;BME280;36133;42.522;27.456;2023-04-27T03:00:53;100766.75;;;11.16;59.00
50250;BME280;36133;42.522;27.456;2023-04-27T03:03:19;100767.97;;;10.99;59.99
50250;BME280;36133;42.522;27.456;2023-04-27T03:05:46;100694.78;;;10.94;58.59
50250;BME280;36133;42.522;27.456;2023-04-27T03:08:11;100799.25;;;11.08;60.01
50250;BME280;36133;42.522;27.456;2023-04-27T03:10:37;100875.47;;;11.69;59.36
50250;BME280;36133;42.522;27.456;2023-04-27T03:13:02;100469.47;;;9.29;58.77
50250;BME280;36133;42.522;27.456;2023-04-27T03:15:28;100902.91;;;11.81;58.69
50250;BME280;36133;42.522;27.456;2023-04-27T03:17:53;100727.63;;;10.97;58.28
50250;BME280;36133;42.522;27.456;2023-04-27T03:20:20;100711.97;;;11.07;57.70
50250;BME280;36133;42.522;27.456;2023-04-27T03:22:46;100921.94;;;12.51;56.79
50250;BME280;36133;42.522;27.456;2023-04-27T03:25:11;100878.50;;;12.17;57.04
50250;BME280;36133;42.522;27.456;2023-04-27T03:27:37;100848.81;;;11.66;56.76
50250;BME280;36133;42.522;27.456;2023-04-27T03:30:03;100930.34;;;12.14;57.01
50250;BME280;36133;42.522;27.456;2023-04-27T03:32:29;100806.28;;;11.96;55.66
50250;BME280;36133;42.522;27.456;2023-04-27T03:34:55;100878.94;;;11.99;56.52
50250;BME280;36133;42.522;27.456;2023-04-27T03:37:21;100755.72;;;11.96;55.59
50250;BME280;36133;42.522;27.456;2023-04-27T03:39:46;100722.59;;;11.73;55.64
50250;BME280;36133;42.522;27.456;2023-04-27T03:42:15;100931.81;;;13.49;54.40
50250;BME280;36133;42.522;27.456;2023-04-27T03:44:40;100510.56;;;12.02;51.89
50250;BME280;36133;42.522;27.456;2023-04-27T03:47:06;100916.25;;;14.52;51.11
50250;BME280;36133;42.522;27.456;2023-04-27T03:49:34;100631.63;;;12.82;50.42
50250;BME280;36133;42.522;27.456;2023-04-27T03:51:59;100640.53;;;12.15;53.55
50250;BME280;36133;42.522;27.456;2023-04-27T03:54:25;100778.94;;;13.90;50.54
50250;BME280;36133;42.522;27.456;2023-04-27T03:56:50;100552.22;;;11.45;52.69
50250;BME280;36133;42.522;27.456;2023-04-27T03:59:16;100948.88;;;14.79;50.57
50250;BME280;36133;42.522;27.456;2023-04-27T04:01:42;100703.28;;;12.32;51.45
50250;BME280;36133;42.522;27.456;2023-04-27T04:04:08;100959.00;;;13.22;52.39
50250;BME280;36133;42.522;27.456;2023-04-27T04:06:33;100972.09;;;13.46;52.01
50250;BME280;36133;42.522;27.456;2023-04-27T04:08:59;100960.72;;;13.70;51.18
50250;BME280;36133;42.522;27.456;2023-04-27T04:11:28;100986.72;;;14.80;48.97
50250;BME280;36133;42.522;27.456;2023-04-27T04:13:54;100984.81;;;15.27;48.45
50250;BME280;36133;42.522;27.456;2023-04-27T04:16:19;100925.44;;;13.23;51.43
50250;BME280;36133;42.522;27.456;2023-04-27T04:18:45;101001.44;;;13.14;52.63
50250;BME280;36133;42.522;27.456;2023-04-27T04:21:10;100971.72;;;14.10;49.14
50250;BME280;36133;42.522;27.456;2023-04-27T04:23:36;101001.75;;;15.22;47.45
50250;BME280;36133;42.522;27.456;2023-04-27T04:26:02;100960.78;;;14.45;48.59
50250;BME280;36133;42.522;27.456;2023-04-27T04:28:28;100646.38;;;12.67;47.85
50250;BME280;36133;42.522;27.456;2023-04-27T04:30:54;100813.63;;;14.28;46.21
50250;BME280;36133;42.522;27.456;2023-04-27T04:33:19;100846.84;;;14.36;47.41
50250;BME280;36133;42.522;27.456;2023-04-27T04:35:45;100953.09;;;15.72;45.75
50250;BME280;36133;42.522;27.456;2023-04-27T04:38:11;100778.75;;;14.25;45.23
50250;BME280;36133;42.522;27.456;2023-04-27T04:40:37;100966.97;;;15.64;45.88
50250;BME280;36133;42.522;27.456;2023-04-27T04:43:04;100998.81;;;14.78;47.00
50250;BME280;36133;42.522;27.456;2023-04-27T04:45:29;100970.59;;;13.43;48.47
50250;BME280;36133;42.522;27.456;2023-04-27T04:47:55;101019.09;;;14.62;48.75
50250;BME280;36133;42.522;27.456;2023-04-27T04:50:20;100781.59;;;12.61;48.79
50250;BME280;36133;42.522;27.456;2023-04-27T04:52:47;100813.41;;;14.36;45.49
50250;BME280;36133;42.522;27.456;2023-04-27T04:55:13;101041.28;;;15.65;46.29
50250;BME280;36133;42.522;27.456;2023-04-27T04:57:39;100963.25;;;13.78;48.07
50250;BME280;36133;42.522;27.456;2023-04-27T05:00:05;100519.72;;;12.08;45.64
50250;BME280;36133;42.522;27.456;2023-04-27T05:02:36;100762.47;;;12.70;47.17
50250;BME280;36133;42.522;27.456;2023-04-27T05:05:01;101032.50;;;16.21;44.18
50250;BME280;36133;42.522;27.456;2023-04-27T05:07:27;101021.44;;;15.31;45.04
50250;BME280;36133;42.522;27.456;2023-04-27T05:09:53;100800.66;;;14.36;44.40
50250;BME280;36133;42.522;27.456;2023-04-27T05:12:18;101035.59;;;16.76;42.17
50250;BME280;36133;42.522;27.456;2023-04-27T05:14:44;100729.66;;;12.93;44.94
50250;BME280;36133;42.522;27.456;2023-04-27T05:17:10;100830.94;;;12.91;47.67
50250;BME280;36133;42.522;27.456;2023-04-27T05:19:36;101029.72;;;13.96;47.13
50250;BME280;36133;42.522;27.456;2023-04-27T05:22:02;100992.72;;;13.88;46.98
50250;BME280;36133;42.522;27.456;2023-04-27T05:24:27;100667.28;;;11.76;46.70
50250;BME280;36133;42.522;27.456;2023-04-27T05:26:53;100733.69;;;11.78;47.82
50250;BME280;36133;42.522;27.456;2023-04-27T05:29:19;100862.44;;;12.93;47.98
50250;BME280;36133;42.522;27.456;2023-04-27T05:31:45;101046.28;;;14.62;47.42
50250;BME280;36133;42.522;27.456;2023-04-27T05:34:10;100700.75;;;12.24;46.66
50250;BME280;36133;42.522;27.456;2023-04-27T05:36:37;100513.78;;;11.22;46.91
50250;BME280;36133;42.522;27.456;2023-04-27T05:39:03;100878.13;;;13.04;46.58
50250;BME280;36133;42.522;27.456;2023-04-27T05:41:29;100790.09;;;12.58;45.92
50250;BME280;36133;42.522;27.456;2023-04-27T05:43:55;100539.03;;;11.35;45.48
50250;BME280;36133;42.522;27.456;2023-04-27T05:46:21;100867.44;;;13.24;45.78
50250;BME280;36133;42.522;27.456;2023-04-27T05:48:46;100527.41;;;10.85;46.06
50250;BME280;36133;42.522;27.456;2023-04-27T05:51:12;101018.72;;;14.98;45.38
50250;BME280;36133;42.522;27.456;2023-04-27T05:53:38;100990.06;;;14.89;44.35
50250;BME280;36133;42.522;27.456;2023-04-27T05:56:03;100879.38;;;13.90;44.38
50250;BME280;36133;42.522;27.456;2023-04-27T05:58:32;100884.47;;;13.17;44.97
50250;BME280;36133;42.522;27.456;2023-04-27T06:00:58;100889.41;;;13.07;44.58
50250;BME280;36133;42.522;27.456;2023-04-27T06:03:24;100532.66;;;11.15;44.55
50250;BME280;36133;42.522;27.456;2023-04-27T06:05:54;101032.38;;;14.37;43.87
50250;BME280;36133;42.522;27.456;2023-04-27T06:08:20;100576.00;;;12.80;42.24
50250;BME280;36133;42.522;27.456;2023-04-27T06:10:46;101059.69;;;15.56;41.42
50250;BME280;36133;42.522;27.456;2023-04-27T06:13:11;101019.59;;;14.24;43.05
50250;BME280;36133;42.522;27.456;2023-04-27T06:15:37;100634.13;;;11.88;43.89
50250;BME280;36133;42.522;27.456;2023-04-27T06:18:05;100788.34;;;13.81;42.71
50250;BME280;36133;42.522;27.456;2023-04-27T06:20:31;100714.44;;;13.59;42.48
50250;BME280;36133;42.522;27.456;2023-04-27T06:22:57;100873.59;;;14.92;41.36
50250;BME280;36133;42.522;27.456;2023-04-27T06:25:24;100725.72;;;13.69;41.94
50250;BME280;36133;42.522;27.456;2023-04-27T06:27:53;100641.06;;;12.39;42.78
50250;BME280;36133;42.522;27.456;2023-04-27T06:30:19;100526.53;;;11.28;44.25
50250;BME280;36133;42.522;27.456;2023-04-27T06:32:48;100566.84;;;12.20;42.26
50250;BME280;36133;42.522;27.456;2023-04-27T06:35:14;100919.06;;;13.98;43.70
50250;BME280;36133;42.522;27.456;2023-04-27T06:37:40;100623.91;;;12.73;42.15
50250;BME280;36133;42.522;27.456;2023-04-27T06:40:06;101116.59;;;16.55;41.14
50250;BME280;36133;42.522;27.456;2023-04-27T06:42:33;100734.03;;;14.27;39.86
50250;BME280;36133;42.522;27.456;2023-04-27T06:45:01;100829.31;;;14.06;41.88
50250;BME280;36133;42.522;27.456;2023-04-27T06:47:31;100574.56;;;13.90;39.74
50250;BME280;36133;42.522;27.456;2023-04-27T06:49:59;100677.53;;;14.69;39.43
50250;BME280;36133;42.522;27.456;2023-04-27T06:52:25;100934.28;;;16.09;39.30
50250;BME280;36133;42.522;27.456;2023-04-27T06:54:51;100598.53;;;14.64;39.19
50250;BME280;36133;42.522;27.456;2023-04-27T06:57:19;100909.41;;;17.12;36.89
50250;BME280;36133;42.522;27.456;2023-04-27T06:59:44;100949.56;;;17.41;37.10
50250;BME280;36133;42.522;27.456;2023-04-27T07:02:15;100869.34;;;16.13;37.06
50250;BME280;36133;42.522;27.456;2023-04-27T07:04:44;100638.59;;;14.24;38.60
50250;BME280;36133;42.522;27.456;2023-04-27T07:07:10;100859.44;;;17.29;36.09
50250;BME280;36133;42.522;27.456;2023-04-27T07:09:35;100644.00;;;16.20;35.50
50250;BME280;36133;42.522;27.456;2023-04-27T07:12:01;100917.16;;;17.33;36.81
50250;BME280;36133;42.522;27.456;2023-04-27T07:14:28;100600.09;;;14.85;37.69
50250;BME280;36133;42.522;27.456;2023-04-27T07:17:02;100592.63;;;14.22;39.23
50250;BME280;36133;42.522;27.456;2023-04-27T07:19:28;100548.34;;;13.51;40.53
50250;BME280;36133;42.522;27.456;2023-04-27T07:21:58;100906.03;;;15.59;40.47
50250;BME280;36133;42.522;27.456;2023-04-27T07:24:43;100894.53;;;14.79;41.34
50250;BME280;36133;42.522;27.456;2023-04-27T07:27:09;100595.19;;;14.11;39.60
50250;BME280;36133;42.522;27.456;2023-04-27T07:29:38;100623.22;;;14.62;39.75
50250;BME280;36133;42.522;27.456;2023-04-27T07:32:05;100554.53;;;13.77;39.17
50250;BME280;36133;42.522;27.456;2023-04-27T07:34:34;100569.38;;;13.82;39.51
50250;BME280;36133;42.522;27.456;2023-04-27T07:37:00;100595.34;;;14.74;38.49
50250;BME280;36133;42.522;27.456;2023-04-27T07:43:14;100595.44;;;13.96;39.96
50250;BME280;36133;42.522;27.456;2023-04-27T07:45:40;101148.44;;;17.88;38.01
50250;BME280;36133;42.522;27.456;2023-04-27T07:48:09;100587.66;;;14.13;39.89
50250;BME280;36133;42.522;27.456;2023-04-27T07:50:38;101011.59;;;16.46;39.47
50250;BME280;36133;42.522;27.456;2023-04-27T07:53:03;100908.56;;;15.47;41.29
50250;BME280;36133;42.522;27.456;2023-04-27T07:55:32;100641.78;;;13.94;40.24
50250;BME280;36133;42.522;27.456;2023-04-27T07:57:58;100749.00;;;15.66;38.35
50250;BME280;36133;42.522;27.456;2023-04-27T08:00:31;100924.41;;;17.21;37.52
50250;BME280;36133;42.522;27.456;2023-04-27T08:03:16;101034.78;;;18.05;37.04
50250;BME280;36133;42.522;27.456;2023-04-27T08:05:42;100944.00;;;18.21;35.83
50250;BME280;36133;42.522;27.456;2023-04-27T08:08:08;100625.25;;;15.68;37.18
50250;BME280;36133;42.522;27.456;2023-04-27T08:10:34;100715.25;;;17.45;33.28
50250;BME280;36133;42.522;27.456;2023-04-27T08:13:38;101127.03;;;18.76;36.04
50250;BME280;36133;42.522;27.456;2023-04-27T08:16:11;100633.97;;;15.52;36.58
50250;BME280;36133;42.522;27.456;2023-04-27T08:18:37;100937.03;;;18.07;35.15
50250;BME280;36133;42.522;27.456;2023-04-27T08:21:03;100960.81;;;18.48;35.40
50250;BME280;36133;42.522;27.456;2023-04-27T08:23:29;100892.94;;;21.37;31.03
50250;BME280;36133;42.522;27.456;2023-04-27T08:25:59;100943.19;;;24.66;27.32
50250;BME280;36133;42.522;27.456;2023-04-27T08:28:30;101121.72;;;27.08;25.67
50250;BME280;36133;42.522;27.456;2023-04-27T08:30:58;100965.69;;;26.35;24.64
50250;BME280;36133;42.522;27.456;2023-04-27T08:33:27;100688.22;;;24.21;25.33
50250;BME280;36133;42.522;27.456;2023-04-27T08:35:53;100955.22;;;24.14;26.88
50250;BME280;36133;42.522;27.456;2023-04-27T08:38:19;100951.75;;;24.49;25.56
50250;BME280;36133;42.522;27.456;2023-04-27T08:40:45;100621.22;;;19.60;28.95
50250;BME280;36133;42.522;27.456;2023-04-27T08:43:11;100607.28;;;18.19;31.40
50250;BME280;36133;42.522;27.456;2023-04-27T08:45:36;100942.31;;;21.53;29.39
50250;BME280;36133;42.522;27.456;2023-04-27T08:48:03;100604.38;;;22.17;26.27
50250;BME280;36133;42.522;27.456;2023-04-27T08:50:29;100750.38;;;25.14;23.50
50250;BME280;36133;42.522;27.456;2023-04-27T08:52:55;101025.44;;;24.59;25.27
50250;BME280;36133;42.522;27.456;2023-04-27T08:55:24;100755.00;;;21.83;26.04
50250;BME280;36133;42.522;27.456;2023-04-27T08:57:57;100798.97;;;22.10;26.53
50250;BME280;36133;42.522;27.456;2023-04-27T09:00:37;100890.63;;;23.90;25.13
50250;BME280;36133;42.522;27.456;2023-04-27T09:03:23;100976.78;;;25.60;24.13
50250;BME280;36133;42.522;27.456;2023-04-27T09:05:52;100832.38;;;23.61;24.29
50250;BME280;36133;42.522;27.456;2023-04-27T09:08:21;100908.66;;;23.50;24.33
50250;BME280;36133;42.522;27.456;2023-04-27T09:10:57;101106.53;;;23.90;25.86
50250;BME280;36133;42.522;27.456;2023-04-27T09:13:42;100775.41;;;21.65;26.40
50250;BME280;36133;42.522;27.456;2023-04-27T09:16:12;100609.75;;;21.06;25.70
50250;BME280;36133;42.522;27.456;2023-04-27T09:18:43;100591.78;;;20.44;26.29
50250;BME280;36133;42.522;27.456;2023-04-27T09:21:08;100783.97;;;21.42;26.80
50250;BME280;36133;42.522;27.456;2023-04-27T09:23:38;100517.09;;;19.05;27.47
50250;BME280;36133;42.522;27.456;2023-04-27T09:26:17;100774.91;;;19.35;30.15
50250;BME280;36133;42.522;27.456;2023-04-27T09:28:53;101055.50;;;22.11;28.43
50250;BME280;36133;42.522;27.456;2023-04-27T09:31:31;100604.56;;;20.83;26.72
50250;BME280;36133;42.522;27.456;2023-04-27T09:34:00;100645.78;;;23.36;24.06
50250;BME280;36133;42.522;27.456;2023-04-27T09:36:39;100608.06;;;24.72;22.56
50250;BME280;36133;42.522;27.456;2023-04-27T09:39:04;100687.72;;;25.04;22.84
50250;BME280;36133;42.522;27.456;2023-04-27T09:41:34;101096.19;;;28.70;21.56
50250;BME280;36133;42.522;27.456;2023-04-27T09:44:01;100896.09;;;28.75;20.57
50250;BME280;36133;42.522;27.456;2023-04-27T09:46:28;100637.00;;;23.70;23.63
50250;BME280;36133;42.522;27.456;2023-04-27T09:49:00;100865.81;;;25.22;23.17
50250;BME280;36133;42.522;27.456;2023-04-27T09:51:28;100934.50;;;25.69;22.83
50250;BME280;36133;42.522;27.456;2023-04-27T09:53:58;100778.84;;;24.99;22.26
50250;BME280;36133;42.522;27.456;2023-04-27T09:59:17;100583.00;;;25.13;21.24
50250;BME280;36133;42.522;27.456;2023-04-27T10:01:54;100617.63;;;26.26;20.26
50250;BME280;36133;42.522;27.456;2023-04-27T10:07:10;100766.69;;;23.27;25.04
50250;BME280;36133;42.522;27.456;2023-04-27T10:09:41;101084.56;;;24.83;24.67
50250;BME280;36133;42.522;27.456;2023-04-27T10:15:09;100548.66;;;20.89;24.98
50250;BME280;36133;42.522;27.456;2023-04-27T10:18:04;100982.72;;;22.45;26.10
50250;BME280;36133;42.522;27.456;2023-04-27T10:21:13;100934.66;;;23.70;25.22
50250;BME280;36133;42.522;27.456;2023-04-27T10:26:48;100685.38;;;23.04;23.49
50250;BME280;36133;42.522;27.456;2023-04-27T10:29:14;100610.75;;;23.06;23.28
50250;BME280;36133;42.522;27.456;2023-04-27T10:32:04;100520.97;;;20.19;25.53
50250;BME280;36133;42.522;27.456;2023-04-27T10:34:39;100509.38;;;19.69;26.55
50250;BME280;36133;42.522;27.456;2023-04-27T10:37:09;100787.41;;;22.08;26.13
50250;BME280;36133;42.522;27.456;2023-04-27T10:39:40;100847.59;;;23.84;23.91
50250;BME280;36133;42.522;27.456;2023-04-27T10:42:24;101076.88;;;25.31;24.04
50250;BME280;36133;42.522;27.456;2023-04-27T10:44:55;100886.66;;;23.60;25.27
50250;BME280;36133;42.522;27.456;2023-04-27T10:47:22;100648.66;;;22.78;24.12
50250;BME280;36133;42.522;27.456;2023-04-27T10:50:00;100574.53;;;20.71;26.09
50250;BME280;36133;42.522;27.456;2023-04-27T10:52:30;100919.69;;;23.50;25.21
50250;BME280;36133;42.522;27.456;2023-04-27T10:54:56;100888.78;;;22.64;26.01
50250;BME280;36133;42.522;27.456;2023-04-27T10:57:22;100911.63;;;22.91;25.42
50250;BME280;36133;42.522;27.456;2023-04-27T10:59:53;100978.09;;;21.58;27.68
50250;BME280;36133;42.522;27.456;2023-04-27T11:02:27;100696.41;;;20.75;26.69
50250;BME280;36133;42.522;27.456;2023-04-27T11:04:55;100941.84;;;22.05;26.85
50250;BME280;36133;42.522;27.456;2023-04-27T11:07:29;100933.81;;;22.20;27.02
50250;BME280;36133;42.522;27.456;2023-04-27T11:09:55;100941.38;;;22.08;26.59
50250;BME280;36133;42.522;27.456;2023-04-27T11:12:21;100949.13;;;24.02;24.74
50250;BME280;36133;42.522;27.456;2023-04-27T11:14:49;100921.63;;;24.94;22.81
50250;BME280;36133;42.522;27.456;2023-04-27T11:17:34;100894.84;;;25.15;22.67
50250;BME280;36133;42.522;27.456;2023-04-27T11:19:59;100923.78;;;25.48;23.04
50250;BME280;36133;42.522;27.456;2023-04-27T11:22:33;100770.91;;;23.50;24.34
50250;BME280;36133;42.522;27.456;2023-04-27T11:24:59;100891.97;;;23.20;25.35
50250;BME280;36133;42.522;27.456;2023-04-27T11:27:39;100731.81;;;21.20;25.71
50250;BME280;36133;42.522;27.456;2023-04-27T11:30:21;100759.25;;;22.70;25.19
50250;BME280;36133;42.522;27.456;2023-04-27T11:32:48;100583.63;;;20.11;26.93
50250;BME280;36133;42.522;27.456;2023-04-27T11:35:31;101109.88;;;22.74;27.32
50250;BME280;36133;42.522;27.456;2023-04-27T11:37:59;100823.50;;;20.30;27.94
50250;BME280;36133;42.522;27.456;2023-04-27T11:40:24;100623.97;;;20.76;26.48
50250;BME280;36133;42.522;27.456;2023-04-27T11:42:58;100629.69;;;21.23;25.92
50250;BME280;36133;42.522;27.456;2023-04-27T11:45:25;100568.00;;;19.22;28.11
50250;BME280;36133;42.522;27.456;2023-04-27T11:47:57;100564.78;;;19.25;27.69
50250;BME280;36133;42.522;27.456;2023-04-27T11:50:24;100648.06;;;19.01;28.75
50250;BME280;36133;42.522;27.456;2023-04-27T11:52:51;101020.28;;;20.40;30.13
50250;BME280;36133;42.522;27.456;2023-04-27T11:55:22;100813.38;;;19.28;29.81
50250;BME280;36133;42.522;27.456;2023-04-27T11:57:56;100847.03;;;19.98;29.59
50250;BME280;36133;42.522;27.456;2023-04-27T12:00:25;100916.69;;;20.42;29.19
50250;BME280;36133;42.522;27.456;2023-04-27T12:02:51;100569.00;;;19.83;27.76
50250;BME280;36133;42.522;27.456;2023-04-27T12:05:17;100653.06;;;21.53;26.04
50250;BME280;36133;42.522;27.456;2023-04-27T12:07:44;101022.66;;;23.86;26.67
50250;BME280;36133;42.522;27.456;2023-04-27T12:10:15;100585.75;;;19.37;28.78
50250;BME280;36133;42.522;27.456;2023-04-27T12:12:52;101116.31;;;21.14;29.46
50250;BME280;36133;42.522;27.456;2023-04-27T12:15:29;101033.09;;;22.24;27.74
50250;BME280;36133;42.522;27.456;2023-04-27T12:17:58;100941.84;;;22.54;26.79
50250;BME280;36133;42.522;27.456;2023-04-27T12:20:27;100777.31;;;19.60;29.18
50250;BME280;36133;42.522;27.456;2023-04-27T12:25:37;100579.13;;;20.00;28.38
50250;BME280;36133;42.522;27.456;2023-04-27T12:28:13;100686.41;;;21.13;27.11
50250;BME280;36133;42.522;27.456;2023-04-27T12:30:43;100623.84;;;22.16;25.22
50250;BME280;36133;42.522;27.456;2023-04-27T12:33:09;100940.69;;;24.80;24.97
50250;BME280;36133;42.522;27.456;2023-04-27T12:35:40;100617.22;;;22.07;25.03
50250;BME280;36133;42.522;27.456;2023-04-27T12:38:05;101110.50;;;24.77;25.48
50250;BME280;36133;42.522;27.456;2023-04-27T12:41:16;100565.72;;;19.65;27.74
50250;BME280;36133;42.522;27.456;2023-04-27T12:43:23;100830.47;;;20.71;28.14
50250;BME280;36133;42.522;27.456;2023-04-27T12:45:48;100939.38;;;21.21;28.90
50250;BME280;36133;42.522;27.456;2023-04-27T12:48:14;100567.81;;;18.79;29.19
50250;BME280;36133;42.522;27.456;2023-04-27T12:50:40;100829.38;;;20.89;28.52
50250;BME280;36133;42.522;27.456;2023-04-27T12:53:06;101106.50;;;21.85;29.30
50250;BME280;36133;42.522;27.456;2023-04-27T12:55:35;100924.06;;;20.41;30.14
50250;BME280;36133;42.522;27.456;2023-04-27T12:58:01;100667.75;;;19.43;29.84
50250;BME280;36133;42.522;27.456;2023-04-27T13:00:32;100513.69;;;18.12;29.55
50250;BME280;36133;42.522;27.456;2023-04-27T13:03:14;100893.78;;;19.63;31.47